createdAt,value
2022-12-19T00:01:29.076Z,-3.67
2022-12-19T00:04:07.755Z,-3.48
2022-12-19T00:06:37.434Z,-3.35
2022-12-19T00:09:05.322Z,-3.37
2022-12-19T00:11:33.549Z,-3.42
2022-12-19T00:14:00.730Z,-3.63
2022-12-19T00:16:29.865Z,-3.95
2022-12-19T00:18:59.653Z,-4.31
2022-12-19T00:21:34.853Z,-4.30
2022-12-19T00:24:13.144Z,-4.40
2022-12-19T00:26:48.141Z,-4.40
2022-12-19T00:29:15.149Z,-4.30
2022-12-19T00:31:44.436Z,-4.23
2022-12-19T00:34:13.815Z,-4.23
2022-12-19T00:36:40.698Z,-4.31
2022-12-19T00:39:08.031Z,-4.25
2022-12-19T00:41:37.462Z,-4.14
2022-12-19T00:44:07.220Z,-4.11
2022-12-19T00:46:35.395Z,-3.89
2022-12-19T00:49:03.661Z,-3.83
2022-12-19T00:51:32.722Z,-3.81
2022-12-19T00:54:00.284Z,-3.73
2022-12-19T00:56:37.792Z,-4.10
2022-12-19T00:59:07.569Z,-3.92
2022-12-19T01:01:37.993Z,-3.80
2022-12-19T01:06:54.759Z,-3.94
2022-12-19T01:09:33.122Z,-4.03
2022-12-19T01:12:00.233Z,-3.83
2022-12-19T01:14:27.326Z,-3.82
2022-12-19T01:16:54.268Z,-3.87
2022-12-19T01:19:21.190Z,-3.90
2022-12-19T01:21:48.437Z,-3.87
2022-12-19T01:24:18.932Z,-4.10
2022-12-19T01:26:49.906Z,-4.07
2022-12-19T01:29:16.844Z,-4.15
2022-12-19T01:31:44.075Z,-4.17
2022-12-19T01:34:11.036Z,-4.32
2022-12-19T01:36:40.045Z,-4.04
2022-12-19T01:39:07.989Z,-4.14
2022-12-19T01:41:35.443Z,-4.10
2022-12-19T01:44:08.206Z,-4.12
2022-12-19T01:46:44.183Z,-4.02
2022-12-19T01:49:34.249Z,-3.62
2022-12-19T01:52:07.433Z,-3.88
2022-12-19T01:54:40.934Z,-3.85
2022-12-19T01:57:13.629Z,-3.83
2022-12-19T01:59:50.190Z,-3.60
2022-12-19T02:02:29.311Z,-3.53
2022-12-19T02:04:56.348Z,-3.44
2022-12-19T02:07:26.311Z,-3.13
2022-12-19T02:09:57.392Z,-3.19
2022-12-19T02:12:43.281Z,-3.49
2022-12-19T02:15:14.715Z,-3.48
2022-12-19T02:17:54.816Z,-3.42
2022-12-19T02:20:59.229Z,-3.40
2022-12-19T02:23:46.069Z,-3.58
2022-12-19T02:26:43.028Z,-3.43
2022-12-19T02:29:37.918Z,-3.36
2022-12-19T02:32:15.817Z,-3.85
2022-12-19T02:35:18.794Z,-3.70
2022-12-19T02:37:59.790Z,-3.61
2022-12-19T02:40:39.438Z,-3.72
2022-12-19T02:43:10.596Z,-3.96
2022-12-19T02:45:39.718Z,-3.56
2022-12-19T02:48:09.220Z,-3.76
2022-12-19T02:50:42.639Z,-3.94
2022-12-19T02:53:13.816Z,-3.94
2022-12-19T02:55:52.915Z,-3.92
2022-12-19T02:58:38.274Z,-3.86
2022-12-19T03:01:17.672Z,-3.85
2022-12-19T03:03:52.082Z,-3.89
2022-12-19T03:06:31.917Z,-3.67
2022-12-19T03:09:12.029Z,-3.44
2022-12-19T03:11:42.143Z,-3.86
2022-12-19T03:14:18.426Z,-3.68
2022-12-19T03:16:45.645Z,-3.79
2022-12-19T03:19:14.764Z,-3.71
2022-12-19T03:21:45.614Z,-3.80
2022-12-19T03:24:14.438Z,-3.82
2022-12-19T03:27:02.084Z,-3.73
2022-12-19T03:29:38.564Z,-3.68
2022-12-19T03:32:10.677Z,-3.64
2022-12-19T03:34:47.357Z,-3.62
2022-12-19T03:37:18.413Z,-3.60
2022-12-19T03:39:49.638Z,-3.86
2022-12-19T03:42:19.124Z,-3.93
2022-12-19T03:44:49.724Z,-3.92
2022-12-19T03:47:51.373Z,-3.70
2022-12-19T03:50:18.812Z,-3.88
2022-12-19T03:53:02.910Z,-3.99
2022-12-19T03:55:38.592Z,-3.87
2022-12-19T03:58:10.911Z,-3.93
2022-12-19T04:00:43.740Z,-4.07
2022-12-19T04:03:11.988Z,-4.04
2022-12-19T04:05:41.524Z,-4.40
2022-12-19T04:08:10.990Z,-4.09
2022-12-19T04:11:01.770Z,-4.15
2022-12-19T04:13:53.335Z,-4.50
2022-12-19T04:16:23.246Z,-4.70
2022-12-19T04:18:58.404Z,-4.83
2022-12-19T04:21:35.602Z,-4.96
2022-12-19T04:24:12.351Z,-4.96
2022-12-19T04:26:42.268Z,-5.09
2022-12-19T04:29:13.933Z,-5.25
2022-12-19T04:31:41.452Z,-5.24
2022-12-19T04:34:08.361Z,-5.42
2022-12-19T04:36:35.287Z,-5.39
2022-12-19T04:39:02.372Z,-5.04
2022-12-19T04:41:29.420Z,-4.97
2022-12-19T04:43:56.335Z,-4.67
2022-12-19T04:46:23.240Z,-4.69
2022-12-19T04:48:50.237Z,-4.63
2022-12-19T04:51:17.301Z,-4.56
2022-12-19T04:53:44.177Z,-4.55
2022-12-19T04:56:11.189Z,-4.62
2022-12-19T04:58:38.061Z,-4.67
2022-12-19T05:01:06.761Z,-4.89
2022-12-19T05:03:34.515Z,-5.21
2022-12-19T05:06:10.329Z,-5.68
2022-12-19T05:08:38.834Z,-5.59
2022-12-19T05:11:07.371Z,-6.12
2022-12-19T05:13:34.357Z,-5.82
2022-12-19T05:16:07.417Z,-5.65
2022-12-19T05:18:36.011Z,-5.73
2022-12-19T05:21:02.972Z,-6.05
2022-12-19T05:23:30.369Z,-6.05
2022-12-19T05:26:02.429Z,-6.37
2022-12-19T05:28:29.600Z,-6.35
2022-12-19T05:31:08.502Z,-6.31
2022-12-19T05:33:36.111Z,-6.70
2022-12-19T05:36:04.337Z,-6.64
2022-12-19T05:38:31.574Z,-6.92
2022-12-19T05:40:58.707Z,-6.94
2022-12-19T05:43:26.316Z,-7.00
2022-12-19T05:45:53.230Z,-7.17
2022-12-19T05:48:20.107Z,-7.06
2022-12-19T05:50:49.001Z,-7.30
2022-12-19T05:53:19.672Z,-7.11
2022-12-19T05:55:50.470Z,-7.24
2022-12-19T05:58:17.334Z,-7.27
2022-12-19T06:00:44.306Z,-7.49
2022-12-19T06:03:11.228Z,-7.31
2022-12-19T06:05:38.365Z,-7.14
2022-12-19T06:08:05.490Z,-7.52
2022-12-19T06:10:32.421Z,-7.55
2022-12-19T06:12:59.282Z,-7.70
2022-12-19T06:15:26.445Z,-7.53
2022-12-19T06:17:54.652Z,-7.67
2022-12-19T06:20:21.770Z,-7.81
2022-12-19T06:22:48.635Z,-7.88
2022-12-19T06:25:15.616Z,-7.77
2022-12-19T06:27:42.530Z,-7.63
2022-12-19T06:30:09.944Z,-7.86
2022-12-19T06:32:38.253Z,-8.00
2022-12-19T06:35:06.078Z,-8.16
2022-12-19T06:37:32.976Z,-8.11
2022-12-19T06:39:59.924Z,-8.12
2022-12-19T06:42:26.899Z,-7.98
2022-12-19T06:44:56.300Z,-7.99
2022-12-19T06:47:24.800Z,-8.09
2022-12-19T06:49:51.919Z,-8.13
2022-12-19T06:52:18.802Z,-8.07
2022-12-19T06:54:45.830Z,-8.00
2022-12-19T06:57:12.746Z,-7.68
2022-12-19T06:59:39.846Z,-7.58
2022-12-19T07:02:16.144Z,-7.39
2022-12-19T07:04:49.683Z,-7.27
2022-12-19T07:07:16.808Z,-7.40
2022-12-19T07:09:43.754Z,-7.33
2022-12-19T07:12:10.731Z,-7.25
2022-12-19T07:14:37.774Z,-7.02
2022-12-19T07:17:05.700Z,-7.03
2022-12-19T07:19:34.954Z,-6.96
2022-12-19T07:22:03.807Z,-6.73
2022-12-19T07:24:31.070Z,-6.82
2022-12-19T07:26:58.515Z,-6.76
2022-12-19T07:29:25.397Z,-6.77
2022-12-19T07:31:52.656Z,-6.89
2022-12-19T07:34:19.558Z,-6.61
2022-12-19T07:36:46.544Z,-6.74
2022-12-19T07:39:13.440Z,-6.76
2022-12-19T07:41:40.422Z,-6.92
2022-12-19T07:44:07.598Z,-6.68
2022-12-19T07:46:35.356Z,-6.46
2022-12-19T07:49:02.322Z,-6.58
2022-12-19T07:51:29.543Z,-6.66
2022-12-19T07:53:56.492Z,-6.63
2022-12-19T07:56:23.407Z,-6.69
2022-12-19T07:58:50.840Z,-6.28
2022-12-19T08:01:18.139Z,-6.33
2022-12-19T08:03:45.167Z,-6.68
2022-12-19T08:06:12.100Z,-6.37
2022-12-19T08:08:38.935Z,-6.47
2022-12-19T08:11:11.428Z,-6.37
2022-12-19T08:13:46.016Z,-6.73
2022-12-19T08:16:14.132Z,-6.65
2022-12-19T08:18:41.275Z,-6.61
2022-12-19T08:21:09.287Z,-6.53
2022-12-19T08:23:36.731Z,-6.54
2022-12-19T08:26:06.463Z,-6.46
2022-12-19T08:28:34.796Z,-6.42
2022-12-19T08:31:15.267Z,-6.36
2022-12-19T08:33:42.389Z,-5.99
2022-12-19T08:36:14.542Z,-5.87
2022-12-19T08:38:42.138Z,-6.07
2022-12-19T08:41:09.469Z,-6.03
2022-12-19T08:43:36.520Z,-5.96
2022-12-19T08:46:03.523Z,-5.29
2022-12-19T08:48:32.374Z,-5.38
2022-12-19T08:51:05.770Z,-5.10
2022-12-19T08:53:36.443Z,-5.36
2022-12-19T08:56:18.190Z,-5.17
2022-12-19T08:58:45.774Z,-4.90
2022-12-19T09:01:15.041Z,-4.73
2022-12-19T09:05:14.005Z,-4.76
2022-12-19T09:06:29.857Z,-4.77
2022-12-19T09:09:00.521Z,-4.64
2022-12-19T09:11:27.808Z,-5.04
2022-12-19T09:13:56.721Z,-4.84
2022-12-19T09:16:26.187Z,-4.68
2022-12-19T09:18:55.535Z,-4.75
2022-12-19T09:21:24.349Z,-4.60
2022-12-19T09:24:00.540Z,-4.23
2022-12-19T09:26:32.890Z,-4.04
2022-12-19T09:29:00.780Z,-4.18
2022-12-19T09:31:28.581Z,-4.22
2022-12-19T09:33:55.638Z,-4.52
2022-12-19T09:36:25.054Z,-4.07
2022-12-19T09:38:56.617Z,-3.89
2022-12-19T09:41:32.575Z,-3.89
2022-12-19T09:44:36.762Z,-3.77
2022-12-19T09:47:17.289Z,-3.85
2022-12-19T09:49:47.461Z,-3.70
2022-12-19T09:52:32.837Z,-3.50
2022-12-19T09:55:16.778Z,-3.59
2022-12-19T09:57:55.602Z,-3.52
2022-12-19T10:00:23.256Z,-3.79
2022-12-19T10:03:09.471Z,-3.71
2022-12-19T10:06:03.240Z,-3.23
2022-12-19T10:08:56.529Z,-3.54
2022-12-19T10:12:42.259Z,-3.58
2022-12-19T10:15:15.359Z,-3.46
2022-12-19T10:18:16.517Z,-3.50
2022-12-19T10:21:00.143Z,-3.51
2022-12-19T10:23:30.841Z,-3.42
2022-12-19T10:26:10.906Z,-3.49
2022-12-19T10:28:38.176Z,-3.64
2022-12-19T10:31:21.566Z,-3.42
2022-12-19T10:34:17.582Z,-3.66
2022-12-19T10:39:53.599Z,-4.11
2022-12-19T10:42:32.777Z,-4.05
2022-12-19T10:45:06.473Z,-4.36
2022-12-19T10:47:33.396Z,-4.12
2022-12-19T10:50:04.013Z,-4.05
2022-12-19T10:53:05.019Z,-4.35
2022-12-19T10:55:41.758Z,-4.38
2022-12-19T10:58:35.736Z,-4.52
2022-12-19T11:01:23.731Z,-4.78
2022-12-19T11:04:23.617Z,-4.64
2022-12-19T11:07:04.704Z,-4.43
2022-12-19T11:09:36.234Z,-4.40
2022-12-19T11:14:40.628Z,-3.93
2022-12-19T11:19:49.146Z,-4.16
2022-12-19T11:27:25.471Z,-4.03
2022-12-19T11:29:31.262Z,-4.20
2022-12-19T11:30:38.644Z,-3.84
2022-12-19T11:30:46.252Z,-4.06
2022-12-19T11:33:18.746Z,-3.87
2022-12-19T11:35:49.280Z,-3.93
2022-12-19T11:38:25.737Z,-4.12
2022-12-19T11:40:57.601Z,-4.11
2022-12-19T11:43:48.545Z,-4.21
2022-12-19T11:46:25.210Z,-3.80
2022-12-19T11:49:23.544Z,-3.97
2022-12-19T11:52:04.054Z,-4.20
2022-12-19T11:54:39.881Z,-4.10
2022-12-19T11:57:11.420Z,-4.21
2022-12-19T11:59:40.157Z,-4.04
2022-12-19T12:02:15.919Z,-4.27
2022-12-19T12:05:08.371Z,-4.58
2022-12-19T12:07:55.542Z,-4.35
2022-12-19T12:16:30.402Z,-4.51
2022-12-19T12:25:05.391Z,-4.68
2022-12-19T12:28:59.927Z,-4.43
2022-12-19T12:31:16.046Z,-4.23
2022-12-19T12:31:17.627Z,-4.24
2022-12-19T12:31:42.404Z,-4.62
2022-12-19T12:31:58.103Z,-4.20
2022-12-19T12:35:30.459Z,-4.43
2022-12-19T12:40:53.620Z,-4.70
2022-12-19T12:43:44.173Z,-4.28
2022-12-19T12:46:19.710Z,-4.39
2022-12-19T12:48:54.765Z,-4.37
2022-12-19T12:51:24.776Z,-4.36
2022-12-19T12:53:59.834Z,-4.26
2022-12-19T12:56:27.016Z,-4.32
2022-12-19T12:58:56.979Z,-4.43
2022-12-19T13:01:29.907Z,-4.37
2022-12-19T13:04:02.200Z,-4.40
2022-12-19T13:06:35.204Z,-4.46
2022-12-19T13:09:16.859Z,-4.53
2022-12-19T13:11:49.878Z,-4.52
2022-12-19T13:14:35.034Z,-4.95
2022-12-19T13:17:04.103Z,-4.91
2022-12-19T13:19:33.656Z,-4.93
2022-12-19T13:22:03.824Z,-4.63
2022-12-19T13:24:42.417Z,-4.91
2022-12-19T13:27:18.645Z,-4.83
2022-12-19T13:30:00.750Z,-4.81
2022-12-19T13:32:36.660Z,-4.91
2022-12-19T13:36:20.223Z,-4.85
2022-12-19T13:40:02.199Z,-4.81
2022-12-19T13:41:26.978Z,-4.67
2022-12-19T13:44:00.018Z,-4.61
2022-12-19T13:46:39.150Z,-4.80
2022-12-19T13:49:11.943Z,-4.73
2022-12-19T13:51:52.280Z,-4.60
2022-12-19T13:54:36.419Z,-4.45
2022-12-19T13:57:08.026Z,-4.51
2022-12-19T13:59:40.179Z,-4.27
2022-12-19T14:02:31.286Z,-4.46
2022-12-19T14:04:59.423Z,-4.20
2022-12-19T14:07:42.100Z,-4.32
2022-12-19T14:11:33.720Z,-4.35
2022-12-19T14:13:57.388Z,-4.45
2022-12-19T14:15:55.597Z,-4.28
2022-12-19T14:18:42.362Z,-4.15
2022-12-19T14:22:05.842Z,-4.37
2022-12-19T14:24:10.196Z,-4.01
2022-12-19T14:28:18.523Z,-4.24
2022-12-19T14:30:28.033Z,-4.20
2022-12-19T14:33:41.969Z,-4.02
2022-12-19T14:36:10.602Z,-3.95
2022-12-19T14:39:24.342Z,-4.05
2022-12-19T14:41:27.816Z,-4.41
2022-12-19T14:51:43.042Z,-4.09
2022-12-19T14:54:07.204Z,-4.10
2022-12-19T14:54:07.517Z,-4.35
2022-12-19T14:54:34.137Z,-4.18
2022-12-19T14:56:17.603Z,-4.25
2022-12-19T14:58:55.604Z,-4.16
2022-12-19T15:01:25.911Z,-4.14
2022-12-19T15:04:49.245Z,-4.08
2022-12-19T15:07:08.897Z,-4.06
2022-12-19T15:11:02.797Z,-3.87
2022-12-19T15:14:04.097Z,-3.67
2022-12-19T15:15:57.393Z,-3.58
2022-12-19T15:18:38.713Z,-3.51
2022-12-19T15:21:11.721Z,-3.55
2022-12-19T15:23:39.070Z,-3.52
2022-12-19T15:26:12.488Z,-3.57
2022-12-19T15:28:48.382Z,-3.40
2022-12-19T15:31:40.422Z,-3.59
2022-12-19T15:36:58.535Z,-3.77
2022-12-19T15:39:25.933Z,-4.09
2022-12-19T15:41:54.880Z,-3.76
2022-12-19T15:44:40.974Z,-3.64
2022-12-19T15:47:18.376Z,-3.71
2022-12-19T15:49:46.072Z,-3.59
2022-12-19T15:52:17.765Z,-3.68
2022-12-19T15:54:48.885Z,-3.66
2022-12-19T15:57:25.805Z,-3.69
2022-12-19T15:59:53.061Z,-3.68
2022-12-19T16:02:25.279Z,-3.73
2022-12-19T16:04:58.334Z,-3.88
2022-12-19T16:07:30.349Z,-3.79
2022-12-19T16:09:57.332Z,-3.82
2022-12-19T16:12:31.683Z,-3.66
2022-12-19T16:15:00.847Z,-3.67
2022-12-19T16:17:31.984Z,-3.90
2022-12-19T16:19:59.175Z,-3.77
2022-12-19T16:22:28.277Z,-3.68
2022-12-19T16:25:10.224Z,-3.84
2022-12-19T16:27:37.241Z,-3.62
2022-12-19T16:30:19.155Z,-3.78
2022-12-19T16:32:46.997Z,-3.87
2022-12-19T16:35:23.893Z,-3.65
2022-12-19T16:38:04.423Z,-3.84
2022-12-19T16:40:31.391Z,-3.62
2022-12-19T16:43:10.798Z,-3.58
2022-12-19T16:45:38.511Z,-3.65
2022-12-19T16:48:21.631Z,-3.57
2022-12-19T16:50:49.472Z,-3.73
2022-12-19T16:53:17.547Z,-3.81
2022-12-19T16:55:47.421Z,-4.09
2022-12-19T16:58:25.500Z,-3.87
2022-12-19T17:00:54.271Z,-3.86
2022-12-19T17:03:29.505Z,-3.75
2022-12-19T17:05:56.683Z,-3.71
2022-12-19T17:08:24.397Z,-3.70
2022-12-19T17:10:53.590Z,-3.62
2022-12-19T17:13:22.259Z,-3.45
2022-12-19T17:15:56.274Z,-3.40
2022-12-19T17:18:29.565Z,-3.54
2022-12-19T17:20:57.788Z,-3.49
2022-12-19T17:23:26.534Z,-3.74
2022-12-19T17:25:53.469Z,-3.54
2022-12-19T17:28:20.513Z,-3.47
2022-12-19T17:30:56.996Z,-3.38
2022-12-19T17:33:32.159Z,-3.36
2022-12-19T17:36:03.064Z,-3.32
2022-12-19T17:38:29.966Z,-3.31
2022-12-19T17:40:57.301Z,-3.39
2022-12-19T17:43:24.352Z,-3.38
2022-12-19T17:45:52.487Z,-3.34
2022-12-19T17:48:33.034Z,-3.39
2022-12-19T17:51:00.287Z,-3.23
2022-12-19T17:53:27.341Z,-3.31
2022-12-19T17:55:54.686Z,-3.42
2022-12-19T17:58:21.811Z,-3.36
2022-12-19T18:00:50.136Z,-3.43
2022-12-19T18:03:18.584Z,-3.47
2022-12-19T18:05:45.637Z,-3.56
2022-12-19T18:08:32.645Z,-3.55
2022-12-19T18:11:03.643Z,-3.57
2022-12-19T18:13:33.517Z,-3.59
2022-12-19T18:16:02.791Z,-3.42
2022-12-19T18:18:35.647Z,-3.47
2022-12-19T18:21:03.380Z,-3.54
2022-12-19T18:23:30.938Z,-3.71
2022-12-19T18:26:01.949Z,-3.53
2022-12-19T18:28:30.170Z,-3.36
2022-12-19T18:31:19.905Z,-3.37
2022-12-19T18:33:48.353Z,-3.52
2022-12-19T18:36:19.568Z,-3.38
2022-12-19T18:38:48.988Z,-3.26
2022-12-19T18:41:17.342Z,-3.35
2022-12-19T18:43:46.074Z,-3.19
2022-12-19T18:46:28.403Z,-3.45
2022-12-19T18:48:55.673Z,-3.25
2022-12-19T18:51:24.341Z,-3.46
2022-12-19T18:53:51.997Z,-3.59
2022-12-19T18:56:19.192Z,-3.44
2022-12-19T18:58:47.257Z,-3.32
2022-12-19T19:01:17.739Z,-3.42
2022-12-19T19:04:00.102Z,-3.33
2022-12-19T19:06:32.943Z,-3.40
2022-12-19T19:09:03.674Z,-3.54
2022-12-19T19:14:39.995Z,-3.44
2022-12-19T19:17:14.045Z,-3.65
2022-12-19T19:19:41.062Z,-3.76
2022-12-19T19:22:08.164Z,-3.57
2022-12-19T19:24:36.088Z,-3.82
2022-12-19T19:27:02.970Z,-3.97
2022-12-19T19:29:30.107Z,-3.68
2022-12-19T19:31:58.735Z,-3.57
2022-12-19T19:34:35.063Z,-3.66
2022-12-19T19:37:07.368Z,-3.61
2022-12-19T19:39:36.126Z,-3.83
2022-12-19T19:42:03.495Z,-3.72
2022-12-19T19:44:30.947Z,-3.78
2022-12-19T19:46:58.250Z,-3.71
2022-12-19T19:49:25.340Z,-3.90
2022-12-19T19:51:55.637Z,-3.76
2022-12-19T19:54:29.301Z,-3.89
2022-12-19T19:56:56.554Z,-3.84
2022-12-19T19:59:23.526Z,-4.01
2022-12-19T20:01:50.699Z,-3.96
2022-12-19T20:04:17.756Z,-4.00
2022-12-19T20:06:44.690Z,-3.79
2022-12-19T20:09:11.995Z,-3.94
2022-12-19T20:11:39.076Z,-3.79
2022-12-19T20:14:06.336Z,-3.67
2022-12-19T20:16:33.605Z,-3.67
2022-12-19T20:19:00.909Z,-3.67
2022-12-19T20:21:34.365Z,-3.49
2022-12-19T20:24:01.314Z,-3.57
2022-12-19T20:26:28.455Z,-3.65
2022-12-19T20:28:55.477Z,-3.72
2022-12-19T20:31:24.140Z,-3.75
2022-12-19T20:33:58.738Z,-3.59
2022-12-19T20:36:25.871Z,-3.45
2022-12-19T20:38:52.894Z,-3.47
2022-12-19T20:41:19.902Z,-3.24
2022-12-19T20:43:47.137Z,-3.35
2022-12-19T20:46:17.168Z,-3.27
2022-12-19T20:48:45.673Z,-3.34
2022-12-19T20:51:14.205Z,-3.47
2022-12-19T20:53:41.667Z,-3.28
2022-12-19T20:56:11.529Z,-3.54
2022-12-19T20:58:46.375Z,-3.17
2022-12-19T21:01:16.333Z,-3.38
2022-12-19T21:03:44.931Z,-3.35
2022-12-19T21:06:14.373Z,-3.44
2022-12-19T21:08:42.267Z,-3.29
2022-12-19T21:11:09.871Z,-3.13
2022-12-19T21:13:38.013Z,-3.06
2022-12-19T21:16:07.301Z,-2.90
2022-12-19T21:18:36.328Z,-2.76
2022-12-19T21:21:03.913Z,-2.82
2022-12-19T21:23:31.020Z,-2.70
2022-12-19T21:26:00.950Z,-2.72
2022-12-19T21:28:28.630Z,-2.76
2022-12-19T21:31:11.676Z,-2.79
2022-12-19T21:33:38.658Z,-2.69
2022-12-19T21:36:10.742Z,-2.64
2022-12-19T21:38:38.318Z,-2.50
2022-12-19T21:41:06.718Z,-2.79
2022-12-19T21:43:34.619Z,-2.66
2022-12-19T21:46:06.993Z,-2.73
2022-12-19T21:48:39.935Z,-2.59
2022-12-19T21:51:07.681Z,-2.65
2022-12-19T21:53:36.239Z,-2.66
2022-12-19T21:56:05.243Z,-2.46
2022-12-19T21:58:32.138Z,-2.62
2022-12-19T22:01:11.750Z,-2.37
2022-12-19T22:03:41.719Z,-2.73
2022-12-19T22:06:13.600Z,-2.56
2022-12-19T22:08:40.698Z,-2.58
2022-12-19T22:11:13.924Z,-2.65
2022-12-19T22:13:41.456Z,-2.42
2022-12-19T22:16:09.785Z,-2.42
2022-12-19T22:18:37.729Z,-2.56
2022-12-19T22:21:05.602Z,-2.39
2022-12-19T22:23:33.010Z,-2.71
2022-12-19T22:26:13.476Z,-2.55
2022-12-19T22:28:43.893Z,-2.57
2022-12-19T22:31:24.584Z,-2.62
2022-12-19T22:33:54.133Z,-2.64
2022-12-19T22:36:27.982Z,-2.68
2022-12-19T22:38:57.566Z,-2.67
2022-12-19T22:41:25.185Z,-2.76
2022-12-19T22:43:52.836Z,-2.67
2022-12-19T22:46:39.978Z,-2.63
2022-12-19T22:49:08.674Z,-2.84
2022-12-19T22:51:37.050Z,-2.91
2022-12-19T22:54:05.122Z,-3.00
2022-12-19T22:56:33.828Z,-2.92
2022-12-19T22:59:06.726Z,-3.01
2022-12-19T23:01:42.681Z,-2.82
2022-12-19T23:04:13.428Z,-2.73
2022-12-19T23:06:41.204Z,-2.61
2022-12-19T23:09:11.575Z,-2.70
2022-12-19T23:11:40.424Z,-2.97
2022-12-19T23:14:09.744Z,-2.71
2022-12-19T23:16:36.723Z,-2.70
2022-12-19T23:19:05.077Z,-3.01
2022-12-19T23:21:32.136Z,-3.04
2022-12-19T23:23:59.038Z,-2.96
2022-12-19T23:26:31.450Z,-3.06
2022-12-19T23:29:13.538Z,-3.12
2022-12-19T23:31:45.308Z,-3.18
2022-12-19T23:34:13.460Z,-2.91
2022-12-19T23:39:27.740Z,-3.14
2022-12-19T23:41:54.707Z,-3.08
2022-12-19T23:44:21.676Z,-2.86
2022-12-19T23:46:48.646Z,-2.93
2022-12-19T23:49:15.828Z,-3.25
2022-12-19T23:51:42.801Z,-3.16
2022-12-19T23:54:09.823Z,-3.37
2022-12-19T23:56:36.918Z,-3.03
2022-12-19T23:59:04.106Z,-3.07
